sensor_id;sensor_type;location;lat;lon;timestamp;pressure;altitude;pressure_sealevel;temperature;humidity
31595;BME280;18200;48.726;8.892;2023-12-20T00:02:26;96704.94;;;17.35;39.63
31595;BME280;18200;48.726;8.892;2023-12-20T00:06:26;96709.44;;;17.55;39.40
31595;BME280;18200;48.726;8.892;2023-12-20T00:10:26;96702.59;;;17.37;39.88
31595;BME280;18200;48.726;8.892;2023-12-20T00:14:27;96701.72;;;17.91;38.91
31595;BME280;18200;48.726;8.892;2023-12-20T00:18:28;96699.03;;;17.88;38.91
31595;BME280;18200;48.726;8.892;2023-12-20T00:22:28;96687.47;;;18.17;38.88
31595;BME280;18200;48.726;8.892;2023-12-20T00:26:28;96687.91;;;18.12;38.49
31595;BME280;18200;48.726;8.892;2023-12-20T00:30:29;96681.00;;;18.04;38.81
31595;BME280;18200;48.726;8.892;2023-12-20T00:34:29;96694.59;;;17.67;39.85
31595;BME280;18200;48.726;8.892;2023-12-20T00:38:30;96690.41;;;17.55;40.50
31595;BME280;18200;48.726;8.892;2023-12-20T00:42:30;96680.56;;;17.72;40.17
31595;BME280;18200;48.726;8.892;2023-12-20T00:46:30;96668.38;;;17.50;40.62
31595;BME280;18200;48.726;8.892;2023-12-20T00:50:31;96681.97;;;17.87;40.11
31595;BME280;18200;48.726;8.892;2023-12-20T00:54:31;96676.63;;;18.14;39.80
31595;BME280;18200;48.726;8.892;2023-12-20T00:58:31;96674.69;;;18.48;38.99
31595;BME280;18200;48.726;8.892;2023-12-20T01:02:32;96684.09;;;18.06;40.32
31595;BME280;18200;48.726;8.892;2023-12-20T01:06:32;96684.44;;;18.45;39.64
31595;BME280;18200;48.726;8.892;2023-12-20T01:10:33;96694.50;;;17.74;40.76
31595;BME280;18200;48.726;8.892;2023-12-20T01:14:33;96687.41;;;17.43;42.14
31595;BME280;18200;48.726;8.892;2023-12-20T01:18:33;96681.84;;;17.98;41.28
31595;BME280;18200;48.726;8.892;2023-12-20T01:22:34;96681.81;;;18.01;40.80
31595;BME280;18200;48.726;8.892;2023-12-20T01:26:35;96684.50;;;18.05;41.25
31595;BME280;18200;48.726;8.892;2023-12-20T01:30:36;96688.44;;;18.34;40.47
31595;BME280;18200;48.726;8.892;2023-12-20T01:34:36;96690.53;;;18.19;40.97
31595;BME280;18200;48.726;8.892;2023-12-20T01:38:37;96684.50;;;18.38;40.83
31595;BME280;18200;48.726;8.892;2023-12-20T01:42:37;96686.84;;;18.03;40.97
31595;BME280;18200;48.726;8.892;2023-12-20T01:46:38;96683.16;;;18.20;40.95
31595;BME280;18200;48.726;8.892;2023-12-20T01:50:39;96675.63;;;18.65;40.28
31595;BME280;18200;48.726;8.892;2023-12-20T01:54:40;96678.31;;;18.68;40.19
31595;BME280;18200;48.726;8.892;2023-12-20T01:58:44;96675.25;;;17.58;41.86
31595;BME280;18200;48.726;8.892;2023-12-20T02:02:46;96672.09;;;18.37;40.55
31595;BME280;18200;48.726;8.892;2023-12-20T02:06:46;96687.34;;;17.94;41.51
31595;BME280;18200;48.726;8.892;2023-12-20T02:10:46;96691.84;;;18.08;40.81
31595;BME280;18200;48.726;8.892;2023-12-20T02:14:48;96694.38;;;17.88;41.59
31595;BME280;18200;48.726;8.892;2023-12-20T02:18:48;96690.69;;;17.68;41.81
31595;BME280;18200;48.726;8.892;2023-12-20T02:22:49;96695.19;;;18.56;39.84
31595;BME280;18200;48.726;8.892;2023-12-20T02:26:49;96692.97;;;18.74;39.59
31595;BME280;18200;48.726;8.892;2023-12-20T02:30:49;96686.00;;;18.43;40.25
31595;BME280;18200;48.726;8.892;2023-12-20T02:34:50;96691.72;;;18.82;39.46
31595;BME280;18200;48.726;8.892;2023-12-20T02:38:50;96681.72;;;18.45;40.03
31595;BME280;18200;48.726;8.892;2023-12-20T02:42:51;96697.25;;;18.11;40.72
31595;BME280;18200;48.726;8.892;2023-12-20T02:46:51;96689.69;;;17.92;41.00
31595;BME280;18200;48.726;8.892;2023-12-20T02:50:51;96699.28;;;18.37;39.68
31595;BME280;18200;48.726;8.892;2023-12-20T02:54:52;96701.94;;;18.07;40.64
31595;BME280;18200;48.726;8.892;2023-12-20T02:58:52;96710.88;;;18.41;39.39
31595;BME280;18200;48.726;8.892;2023-12-20T03:02:52;96703.75;;;18.54;39.66
31595;BME280;18200;48.726;8.892;2023-12-20T03:06:53;96702.63;;;18.18;40.75
31595;BME280;18200;48.726;8.892;2023-12-20T03:10:53;96715.13;;;17.20;41.63
31595;BME280;18200;48.726;8.892;2023-12-20T03:14:53;96720.19;;;17.18;41.45
31595;BME280;18200;48.726;8.892;2023-12-20T03:18:54;96740.47;;;15.42;44.78
31595;BME280;18200;48.726;8.892;2023-12-20T03:22:54;96736.97;;;15.03;45.73
31595;BME280;18200;48.726;8.892;2023-12-20T03:26:54;96735.03;;;15.85;43.83
31595;BME280;18200;48.726;8.892;2023-12-20T03:30:55;96740.47;;;15.85;43.56
31595;BME280;18200;48.726;8.892;2023-12-20T03:34:55;96723.47;;;15.52;44.64
31595;BME280;18200;48.726;8.892;2023-12-20T03:38:55;96729.25;;;15.26;44.44
31595;BME280;18200;48.726;8.892;2023-12-20T03:42:56;96744.34;;;15.84;44.02
31595;BME280;18200;48.726;8.892;2023-12-20T03:46:56;96744.31;;;15.91;43.44
31595;BME280;18200;48.726;8.892;2023-12-20T03:50:57;96743.34;;;16.71;42.54
31595;BME280;18200;48.726;8.892;2023-12-20T03:54:57;96748.97;;;15.87;43.68
31595;BME280;18200;48.726;8.892;2023-12-20T03:58:57;96733.63;;;16.77;42.12
31595;BME280;18200;48.726;8.892;2023-12-20T04:02:58;96746.53;;;16.38;42.89
31595;BME280;18200;48.726;8.892;2023-12-20T04:06:58;96747.47;;;15.58;44.02
31595;BME280;18200;48.726;8.892;2023-12-20T04:10:58;96735.09;;;15.49;44.35
31595;BME280;18200;48.726;8.892;2023-12-20T04:14:59;96742.03;;;15.72;44.11
31595;BME280;18200;48.726;8.892;2023-12-20T04:18:59;96756.72;;;15.81;43.91
31595;BME280;18200;48.726;8.892;2023-12-20T04:22:59;96762.84;;;16.24;42.85
31595;BME280;18200;48.726;8.892;2023-12-20T04:27:00;96747.94;;;16.81;41.82
31595;BME280;18200;48.726;8.892;2023-12-20T04:31:01;96762.41;;;16.40;43.14
31595;BME280;18200;48.726;8.892;2023-12-20T04:35:01;96752.19;;;16.86;41.39
31595;BME280;18200;48.726;8.892;2023-12-20T04:39:01;96765.50;;;17.28;40.71
31595;BME280;18200;48.726;8.892;2023-12-20T04:43:03;96770.69;;;17.63;40.39
31595;BME280;18200;48.726;8.892;2023-12-20T04:47:03;96765.72;;;17.99;39.80
31595;BME280;18200;48.726;8.892;2023-12-20T04:51:04;96773.81;;;18.06;38.91
31595;BME280;18200;48.726;8.892;2023-12-20T04:55:05;96774.50;;;17.73;40.29
31595;BME280;18200;48.726;8.892;2023-12-20T04:59:05;96779.94;;;17.73;39.67
31595;BME280;18200;48.726;8.892;2023-12-20T05:03:06;96778.41;;;17.68;39.83
31595;BME280;18200;48.726;8.892;2023-12-20T05:07:06;96782.53;;;17.32;40.85
31595;BME280;18200;48.726;8.892;2023-12-20T05:11:06;96791.91;;;17.24;41.31
31595;BME280;18200;48.726;8.892;2023-12-20T05:15:07;96794.84;;;17.54;40.82
31595;BME280;18200;48.726;8.892;2023-12-20T05:19:07;96806.13;;;16.66;42.42
31595;BME280;18200;48.726;8.892;2023-12-20T05:23:08;96806.69;;;17.13;41.93
31595;BME280;18200;48.726;8.892;2023-12-20T05:27:08;96800.81;;;15.46;45.26
31595;BME280;18200;48.726;8.892;2023-12-20T05:31:08;96815.47;;;16.33;43.29
31595;BME280;18200;48.726;8.892;2023-12-20T05:35:09;96831.03;;;16.05;44.18
31595;BME280;18200;48.726;8.892;2023-12-20T05:39:09;96813.66;;;17.17;42.15
31595;BME280;18200;48.726;8.892;2023-12-20T05:43:10;96820.84;;;16.76;42.46
31595;BME280;18200;48.726;8.892;2023-12-20T05:47:10;96830.44;;;16.94;42.76
31595;BME280;18200;48.726;8.892;2023-12-20T05:51:14;96835.63;;;16.50;43.74
31595;BME280;18200;48.726;8.892;2023-12-20T05:55:14;96825.91;;;17.50;42.22
31595;BME280;18200;48.726;8.892;2023-12-20T05:59:14;96844.97;;;16.14;45.27
31595;BME280;18200;48.726;8.892;2023-12-20T06:03:15;96851.09;;;16.67;43.72
31595;BME280;18200;48.726;8.892;2023-12-20T06:07:16;96864.22;;;16.86;42.86
31595;BME280;18200;48.726;8.892;2023-12-20T06:11:16;96859.72;;;17.35;42.29
31595;BME280;18200;48.726;8.892;2023-12-20T06:15:17;96866.56;;;16.74;43.94
31595;BME280;18200;48.726;8.892;2023-12-20T06:19:17;96868.72;;;17.18;43.21
31595;BME280;18200;48.726;8.892;2023-12-20T06:23:17;96870.41;;;16.90;43.73
31595;BME280;18200;48.726;8.892;2023-12-20T06:27:18;96874.25;;;16.89;43.53
31595;BME280;18200;48.726;8.892;2023-12-20T06:31:18;96872.69;;;16.99;43.42
31595;BME280;18200;48.726;8.892;2023-12-20T06:35:18;96864.69;;;17.54;42.28
31595;BME280;18200;48.726;8.892;2023-12-20T06:39:19;96867.75;;;16.69;43.91
31595;BME280;18200;48.726;8.892;2023-12-20T06:43:20;96874.22;;;17.00;43.49
31595;BME280;18200;48.726;8.892;2023-12-20T06:47:20;96869.72;;;16.37;44.79
31595;BME280;18200;48.726;8.892;2023-12-20T06:51:20;96884.41;;;16.71;43.78
31595;BME280;18200;48.726;8.892;2023-12-20T06:55:21;96890.56;;;16.82;43.80
31595;BME280;18200;48.726;8.892;2023-12-20T06:59:21;96900.69;;;15.87;45.63
31595;BME280;18200;48.726;8.892;2023-12-20T07:03:22;96903.41;;;15.97;45.13
31595;BME280;18200;48.726;8.892;2023-12-20T07:07:22;96907.66;;;16.02;45.42
31595;BME280;18200;48.726;8.892;2023-12-20T07:11:24;96911.47;;;15.51;46.47
31595;BME280;18200;48.726;8.892;2023-12-20T07:15:25;96913.00;;;15.45;46.89
31595;BME280;18200;48.726;8.892;2023-12-20T07:19:25;96937.16;;;15.03;47.13
31595;BME280;18200;48.726;8.892;2023-12-20T07:23:25;96930.91;;;16.42;43.94
31595;BME280;18200;48.726;8.892;2023-12-20T07:27:26;96949.78;;;15.61;45.52
31595;BME280;18200;48.726;8.892;2023-12-20T07:31:27;96959.53;;;15.90;44.99
31595;BME280;18200;48.726;8.892;2023-12-20T07:35:27;96949.44;;;15.73;44.83
31595;BME280;18200;48.726;8.892;2023-12-20T07:39:28;96954.19;;;16.67;43.50
31595;BME280;18200;48.726;8.892;2023-12-20T07:43:28;96946.38;;;16.27;44.20
31595;BME280;18200;48.726;8.892;2023-12-20T07:47:28;96966.44;;;15.63;45.61
31595;BME280;18200;48.726;8.892;2023-12-20T07:51:29;96964.97;;;15.04;46.94
31595;BME280;18200;48.726;8.892;2023-12-20T07:55:29;96954.94;;;16.22;45.18
31595;BME280;18200;48.726;8.892;2023-12-20T07:59:31;96950.28;;;16.47;44.26
31595;BME280;18200;48.726;8.892;2023-12-20T08:03:31;96960.34;;;16.15;44.56
31595;BME280;18200;48.726;8.892;2023-12-20T08:07:32;96968.38;;;15.62;46.41
31595;BME280;18200;48.726;8.892;2023-12-20T08:11:32;96973.44;;;15.78;46.01
31595;BME280;18200;48.726;8.892;2023-12-20T08:15:32;96976.28;;;15.23;46.45
31595;BME280;18200;48.726;8.892;2023-12-20T08:19:33;96986.28;;;15.12;47.27
31595;BME280;18200;48.726;8.892;2023-12-20T08:23:34;96994.78;;;13.39;50.16
31595;BME280;18200;48.726;8.892;2023-12-20T08:27:40;96981.97;;;14.02;48.44
31595;BME280;18200;48.726;8.892;2023-12-20T08:31:41;96993.94;;;14.96;45.65
31595;BME280;18200;48.726;8.892;2023-12-20T08:35:41;96985.47;;;14.07;46.47
31595;BME280;18200;48.726;8.892;2023-12-20T08:39:42;96981.88;;;15.55;43.45
31595;BME280;18200;48.726;8.892;2023-12-20T08:43:44;97000.53;;;15.78;42.62
31595;BME280;18200;48.726;8.892;2023-12-20T08:47:44;97013.31;;;15.05;43.99
31595;BME280;18200;48.726;8.892;2023-12-20T08:51:45;97018.56;;;13.96;44.55
31595;BME280;18200;48.726;8.892;2023-12-20T08:55:45;97013.16;;;14.81;43.14
31595;BME280;18200;48.726;8.892;2023-12-20T08:59:46;97007.53;;;13.42;45.50
31595;BME280;18200;48.726;8.892;2023-12-20T09:03:47;97009.69;;;14.33;43.19
31595;BME280;18200;48.726;8.892;2023-12-20T09:07:47;97010.09;;;14.82;42.54
31595;BME280;18200;48.726;8.892;2023-12-20T09:11:48;97012.38;;;14.80;41.43
31595;BME280;18200;48.726;8.892;2023-12-20T09:15:50;97003.31;;;14.15;43.21
31595;BME280;18200;48.726;8.892;2023-12-20T09:19:50;97007.56;;;14.16;43.19
31595;BME280;18200;48.726;8.892;2023-12-20T09:23:52;97000.59;;;13.78;43.59
31595;BME280;18200;48.726;8.892;2023-12-20T09:27:53;97009.28;;;13.94;42.92
31595;BME280;18200;48.726;8.892;2023-12-20T09:31:53;97012.75;;;13.94;42.50
31595;BME280;18200;48.726;8.892;2023-12-20T09:35:53;97025.28;;;13.76;43.29
31595;BME280;18200;48.726;8.892;2023-12-20T09:39:54;97020.22;;;14.99;40.09
31595;BME280;18200;48.726;8.892;2023-12-20T09:43:56;97023.47;;;15.26;40.39
31595;BME280;18200;48.726;8.892;2023-12-20T09:48:03;97021.44;;;15.81;39.15
31595;BME280;18200;48.726;8.892;2023-12-20T09:52:05;97026.94;;;16.16;38.53
31595;BME280;18200;48.726;8.892;2023-12-20T09:56:07;97037.41;;;15.31;41.52
31595;BME280;18200;48.726;8.892;2023-12-20T10:00:08;97026.47;;;15.10;40.79
31595;BME280;18200;48.726;8.892;2023-12-20T10:04:12;97036.84;;;14.47;41.53
31595;BME280;18200;48.726;8.892;2023-12-20T10:08:13;97050.91;;;13.89;43.10
31595;BME280;18200;48.726;8.892;2023-12-20T10:12:14;97021.72;;;14.93;40.61
31595;BME280;18200;48.726;8.892;2023-12-20T10:16:14;97026.31;;;14.35;40.79
31595;BME280;18200;48.726;8.892;2023-12-20T10:20:15;97018.69;;;14.98;39.99
31595;BME280;18200;48.726;8.892;2023-12-20T10:24:18;97013.72;;;14.16;40.20
31595;BME280;18200;48.726;8.892;2023-12-20T10:28:18;96998.06;;;15.44;38.98
31595;BME280;18200;48.726;8.892;2023-12-20T10:32:23;97011.72;;;14.06;41.34
31595;BME280;18200;48.726;8.892;2023-12-20T10:36:27;97014.94;;;13.49;41.21
31595;BME280;18200;48.726;8.892;2023-12-20T10:40:29;96993.72;;;14.64;41.04
31595;BME280;18200;48.726;8.892;2023-12-20T10:44:30;96994.66;;;14.90;39.65
31595;BME280;18200;48.726;8.892;2023-12-20T10:48:30;96983.50;;;14.03;40.79
31595;BME280;18200;48.726;8.892;2023-12-20T10:52:32;96991.50;;;14.30;41.34
31595;BME280;18200;48.726;8.892;2023-12-20T10:56:32;96984.59;;;13.95;40.99
31595;BME280;18200;48.726;8.892;2023-12-20T11:00:40;96986.50;;;14.32;40.50
31595;BME280;18200;48.726;8.892;2023-12-20T11:09:12;96989.00;;;16.30;36.43
31595;BME280;18200;48.726;8.892;2023-12-20T11:13:23;96984.09;;;14.23;40.55
31595;BME280;18200;48.726;8.892;2023-12-20T11:17:27;96995.78;;;14.31;39.59
31595;BME280;18200;48.726;8.892;2023-12-20T11:21:29;97002.72;;;13.58;40.66
31595;BME280;18200;48.726;8.892;2023-12-20T11:25:29;96997.41;;;14.06;39.36
31595;BME280;18200;48.726;8.892;2023-12-20T11:33:38;96984.75;;;14.50;39.08
31595;BME280;18200;48.726;8.892;2023-12-20T11:37:40;97000.66;;;13.81;39.88
31595;BME280;18200;48.726;8.892;2023-12-20T11:41:44;96968.34;;;14.87;38.01
31595;BME280;18200;48.726;8.892;2023-12-20T11:45:51;96988.47;;;13.94;39.71
31595;BME280;18200;48.726;8.892;2023-12-20T11:49:51;97009.72;;;14.40;38.15
31595;BME280;18200;48.726;8.892;2023-12-20T11:53:52;96986.38;;;15.26;37.47
31595;BME280;18200;48.726;8.892;2023-12-20T11:57:53;96975.22;;;14.70;38.34
31595;BME280;18200;48.726;8.892;2023-12-20T12:01:54;96979.56;;;13.57;40.09
31595;BME280;18200;48.726;8.892;2023-12-20T12:06:01;96968.88;;;16.77;34.97
31595;BME280;18200;48.726;8.892;2023-12-20T12:10:03;96959.41;;;17.38;33.49
31595;BME280;18200;48.726;8.892;2023-12-20T12:14:04;96957.63;;;16.01;35.30
31595;BME280;18200;48.726;8.892;2023-12-20T12:18:04;96946.41;;;16.45;35.25
31595;BME280;18200;48.726;8.892;2023-12-20T12:22:09;96944.72;;;15.48;36.27
31595;BME280;18200;48.726;8.892;2023-12-20T12:26:16;96947.97;;;14.42;38.83
31595;BME280;18200;48.726;8.892;2023-12-20T12:30:17;96932.47;;;16.64;34.78
31595;BME280;18200;48.726;8.892;2023-12-20T12:34:18;96937.06;;;16.88;35.13
31595;BME280;18200;48.726;8.892;2023-12-20T12:38:20;96936.38;;;15.03;37.72
31595;BME280;18200;48.726;8.892;2023-12-20T12:42:21;96927.81;;;16.22;35.70
31595;BME280;18200;48.726;8.892;2023-12-20T12:46:25;96933.94;;;15.66;36.30
31595;BME280;18200;48.726;8.892;2023-12-20T12:50:26;96923.91;;;15.81;36.27
31595;BME280;18200;48.726;8.892;2023-12-20T12:54:28;96943.47;;;14.60;38.68
31595;BME280;18200;48.726;8.892;2023-12-20T12:58:29;96934.53;;;15.17;37.73
31595;BME280;18200;48.726;8.892;2023-12-20T13:02:29;96951.59;;;15.35;38.19
31595;BME280;18200;48.726;8.892;2023-12-20T13:06:30;96953.03;;;14.47;39.90
31595;BME280;18200;48.726;8.892;2023-12-20T13:10:31;96923.94;;;16.16;36.06
31595;BME280;18200;48.726;8.892;2023-12-20T13:14:35;96918.81;;;14.18;39.26
31595;BME280;18200;48.726;8.892;2023-12-20T13:18:37;96914.25;;;16.36;35.87
31595;BME280;18200;48.726;8.892;2023-12-20T13:22:37;96924.72;;;16.13;36.07
31595;BME280;18200;48.726;8.892;2023-12-20T13:26:38;96929.69;;;16.95;34.73
31595;BME280;18200;48.726;8.892;2023-12-20T13:30:38;96929.75;;;16.43;35.08
31595;BME280;18200;48.726;8.892;2023-12-20T13:34:39;96934.91;;;15.19;38.00
31595;BME280;18200;48.726;8.892;2023-12-20T13:38:39;96929.63;;;14.72;38.69
31595;BME280;18200;48.726;8.892;2023-12-20T13:42:39;96938.59;;;13.88;40.55
31595;BME280;18200;48.726;8.892;2023-12-20T13:46:41;96930.13;;;14.88;38.50
31595;BME280;18200;48.726;8.892;2023-12-20T13:50:41;96930.38;;;13.74;40.39
31595;BME280;18200;48.726;8.892;2023-12-20T13:54:42;96933.84;;;15.41;37.81
31595;BME280;18200;48.726;8.892;2023-12-20T13:58:42;96931.03;;;15.10;38.70
31595;BME280;18200;48.726;8.892;2023-12-20T14:02:43;96932.16;;;15.12;38.44
31595;BME280;18200;48.726;8.892;2023-12-20T14:06:43;96926.25;;;16.42;36.53
31595;BME280;18200;48.726;8.892;2023-12-20T14:10:43;96925.53;;;14.96;39.08
31595;BME280;18200;48.726;8.892;2023-12-20T14:14:44;96910.69;;;15.47;38.57
31595;BME280;18200;48.726;8.892;2023-12-20T14:18:45;96908.09;;;14.93;38.38
31595;BME280;18200;48.726;8.892;2023-12-20T14:22:45;96902.91;;;14.60;40.36
31595;BME280;18200;48.726;8.892;2023-12-20T14:26:46;96911.50;;;15.73;38.68
31595;BME280;18200;48.726;8.892;2023-12-20T14:30:47;96904.50;;;15.43;39.47
31595;BME280;18200;48.726;8.892;2023-12-20T14:34:49;96890.66;;;16.05;37.88
31595;BME280;18200;48.726;8.892;2023-12-20T14:38:49;96905.34;;;16.60;37.28
31595;BME280;18200;48.726;8.892;2023-12-20T14:42:50;96893.72;;;16.21;38.29
31595;BME280;18200;48.726;8.892;2023-12-20T14:46:51;96905.75;;;15.88;39.22
31595;BME280;18200;48.726;8.892;2023-12-20T14:50:51;96901.50;;;16.01;38.03
31595;BME280;18200;48.726;8.892;2023-12-20T14:54:52;96902.03;;;17.29;36.05
31595;BME280;18200;48.726;8.892;2023-12-20T14:58:53;96897.53;;;16.90;36.87
31595;BME280;18200;48.726;8.892;2023-12-20T15:02:53;96895.22;;;15.48;39.62
31595;BME280;18200;48.726;8.892;2023-12-20T15:06:56;96900.72;;;16.29;38.14
31595;BME280;18200;48.726;8.892;2023-12-20T15:10:57;96913.06;;;16.79;37.48
31595;BME280;18200;48.726;8.892;2023-12-20T15:14:57;96906.13;;;16.57;39.19
31595;BME280;18200;48.726;8.892;2023-12-20T15:18:58;96910.13;;;17.50;37.16
31595;BME280;18200;48.726;8.892;2023-12-20T15:22:58;96900.38;;;17.49;36.36
31595;BME280;18200;48.726;8.892;2023-12-20T15:27:05;96901.69;;;17.20;36.81
31595;BME280;18200;48.726;8.892;2023-12-20T15:31:06;96906.25;;;17.37;37.22
31595;BME280;18200;48.726;8.892;2023-12-20T15:35:07;96901.34;;;17.07;37.50
31595;BME280;18200;48.726;8.892;2023-12-20T15:39:07;96905.91;;;17.28;37.39
31595;BME280;18200;48.726;8.892;2023-12-20T15:43:17;96910.50;;;17.38;37.08
31595;BME280;18200;48.726;8.892;2023-12-20T15:47:17;96894.09;;;17.66;36.94
31595;BME280;18200;48.726;8.892;2023-12-20T15:51:20;96901.84;;;17.71;36.47
31595;BME280;18200;48.726;8.892;2023-12-20T15:55:21;96901.06;;;17.70;36.67
31595;BME280;18200;48.726;8.892;2023-12-20T15:59:21;96893.78;;;17.53;36.69
31595;BME280;18200;48.726;8.892;2023-12-20T16:03:22;96900.84;;;17.30;37.70
31595;BME280;18200;48.726;8.892;2023-12-20T16:07:22;96910.38;;;16.37;38.70
31595;BME280;18200;48.726;8.892;2023-12-20T16:11:23;96917.81;;;17.55;36.70
31595;BME280;18200;48.726;8.892;2023-12-20T16:15:23;96918.25;;;17.50;36.46
31595;BME280;18200;48.726;8.892;2023-12-20T16:19:23;96905.72;;;17.70;36.70
31595;BME280;18200;48.726;8.892;2023-12-20T16:23:24;96911.28;;;17.38;37.18
31595;BME280;18200;48.726;8.892;2023-12-20T16:27:24;96917.44;;;17.56;36.53
31595;BME280;18200;48.726;8.892;2023-12-20T16:31:24;96918.25;;;17.43;36.21
31595;BME280;18200;48.726;8.892;2023-12-20T16:35:25;96896.53;;;17.50;36.63
31595;BME280;18200;48.726;8.892;2023-12-20T16:39:25;96903.88;;;17.56;35.98
31595;BME280;18200;48.726;8.892;2023-12-20T16:43:26;96897.84;;;17.06;37.51
31595;BME280;18200;48.726;8.892;2023-12-20T16:47:26;96905.88;;;17.35;36.21
31595;BME280;18200;48.726;8.892;2023-12-20T16:51:26;96908.44;;;16.27;38.40
31595;BME280;18200;48.726;8.892;2023-12-20T16:55:29;96915.34;;;16.91;37.69
31595;BME280;18200;48.726;8.892;2023-12-20T16:59:29;96909.16;;;16.87;37.41
31595;BME280;18200;48.726;8.892;2023-12-20T17:03:30;96914.16;;;16.99;36.94
31595;BME280;18200;48.726;8.892;2023-12-20T17:07:30;96907.19;;;17.05;36.96
31595;BME280;18200;48.726;8.892;2023-12-20T17:11:31;96898.34;;;16.70;37.18
31595;BME280;18200;48.726;8.892;2023-12-20T17:15:31;96896.78;;;16.65;37.46
31595;BME280;18200;48.726;8.892;2023-12-20T17:19:32;96888.31;;;16.39;38.07
31595;BME280;18200;48.726;8.892;2023-12-20T17:23:33;96887.91;;;16.40;37.90
31595;BME280;18200;48.726;8.892;2023-12-20T17:27:34;96879.03;;;15.83;38.91
31595;BME280;18200;48.726;8.892;2023-12-20T17:31:35;96888.72;;;16.09;38.48
31595;BME280;18200;48.726;8.892;2023-12-20T17:35:37;96889.47;;;15.88;38.83
31595;BME280;18200;48.726;8.892;2023-12-20T17:39:37;96892.94;;;16.10;38.57
31595;BME280;18200;48.726;8.892;2023-12-20T17:43:38;96896.84;;;16.58;37.80
31595;BME280;18200;48.726;8.892;2023-12-20T17:47:39;96889.47;;;16.16;38.57
31595;BME280;18200;48.726;8.892;2023-12-20T17:51:40;96892.19;;;16.06;38.89
31595;BME280;18200;48.726;8.892;2023-12-20T17:55:43;96886.00;;;15.88;38.97
31595;BME280;18200;48.726;8.892;2023-12-20T17:59:43;96887.53;;;15.82;38.53
31595;BME280;18200;48.726;8.892;2023-12-20T18:03:44;96887.94;;;16.12;38.79
31595;BME280;18200;48.726;8.892;2023-12-20T18:07:44;96879.03;;;16.29;38.14
31595;BME280;18200;48.726;8.892;2023-12-20T18:11:46;96875.13;;;16.30;38.59
31595;BME280;18200;48.726;8.892;2023-12-20T18:15:46;96883.66;;;16.11;38.84
31595;BME280;18200;48.726;8.892;2023-12-20T18:19:47;96901.06;;;15.75;39.31
31595;BME280;18200;48.726;8.892;2023-12-20T18:23:47;96903.81;;;16.03;39.11
31595;BME280;18200;48.726;8.892;2023-12-20T18:27:47;96901.47;;;16.40;38.87
31595;BME280;18200;48.726;8.892;2023-12-20T18:31:48;96900.66;;;15.66;39.98
31595;BME280;18200;48.726;8.892;2023-12-20T18:35:49;96886.00;;;16.16;38.84
31595;BME280;18200;48.726;8.892;2023-12-20T18:39:49;96875.16;;;16.09;39.00
31595;BME280;18200;48.726;8.892;2023-12-20T18:43:50;96868.50;;;15.46;40.34
31595;BME280;18200;48.726;8.892;2023-12-20T18:47:51;96868.91;;;16.47;38.35
31595;BME280;18200;48.726;8.892;2023-12-20T18:51:53;96858.13;;;16.05;38.54
31595;BME280;18200;48.726;8.892;2023-12-20T18:55:54;96852.31;;;15.99;38.91
31595;BME280;18200;48.726;8.892;2023-12-20T18:59:54;96874.94;;;15.10;40.19
31595;BME280;18200;48.726;8.892;2023-12-20T19:03:55;96861.81;;;15.05;41.25
31595;BME280;18200;48.726;8.892;2023-12-20T19:07:55;96865.06;;;16.48;38.43
31595;BME280;18200;48.726;8.892;2023-12-20T19:11:56;96859.22;;;16.71;38.38
31595;BME280;18200;48.726;8.892;2023-12-20T19:15:57;96849.19;;;16.50;38.90
31595;BME280;18200;48.726;8.892;2023-12-20T19:19:58;96845.72;;;16.50;38.48
31595;BME280;18200;48.726;8.892;2023-12-20T19:23:58;96826.31;;;16.58;37.51
31595;BME280;18200;48.726;8.892;2023-12-20T19:27:59;96824.38;;;16.48;38.36
31595;BME280;18200;48.726;8.892;2023-12-20T19:31:59;96814.38;;;15.53;39.75
31595;BME280;18200;48.726;8.892;2023-12-20T19:36:00;96825.59;;;16.12;39.09
31595;BME280;18200;48.726;8.892;2023-12-20T19:40:00;96806.97;;;16.28;39.02
31595;BME280;18200;48.726;8.892;2023-12-20T19:44:01;96796.16;;;16.21;39.17
31595;BME280;18200;48.726;8.892;2023-12-20T19:48:03;96801.63;;;15.86;39.33
31595;BME280;18200;48.726;8.892;2023-12-20T19:52:03;96787.66;;;16.08;39.21
31595;BME280;18200;48.726;8.892;2023-12-20T19:56:04;96803.16;;;16.01;39.92
31595;BME280;18200;48.726;8.892;2023-12-20T20:00:05;96801.59;;;16.07;39.09
31595;BME280;18200;48.726;8.892;2023-12-20T20:04:12;96798.53;;;15.94;39.80
31595;BME280;18200;48.726;8.892;2023-12-20T20:08:12;96800.81;;;16.24;39.46
31595;BME280;18200;48.726;8.892;2023-12-20T20:12:13;96798.41;;;16.40;38.79
31595;BME280;18200;48.726;8.892;2023-12-20T20:16:14;96793.00;;;16.47;38.51
31595;BME280;18200;48.726;8.892;2023-12-20T20:20:15;96794.66;;;15.78;39.94
31595;BME280;18200;48.726;8.892;2023-12-20T20:24:15;96794.63;;;16.13;38.71
31595;BME280;18200;48.726;8.892;2023-12-20T20:28:16;96798.06;;;16.52;37.95
31595;BME280;18200;48.726;8.892;2023-12-20T20:32:18;96796.88;;;16.53;38.47
31595;BME280;18200;48.726;8.892;2023-12-20T20:36:18;96784.53;;;16.17;39.24
31595;BME280;18200;48.726;8.892;2023-12-20T20:40:19;96774.16;;;15.84;39.36
31595;BME280;18200;48.726;8.892;2023-12-20T20:44:19;96779.91;;;16.00;38.82
31595;BME280;18200;48.726;8.892;2023-12-20T20:48:19;96776.44;;;15.96;39.39
31595;BME280;18200;48.726;8.892;2023-12-20T20:52:20;96769.09;;;15.50;40.26
31595;BME280;18200;48.726;8.892;2023-12-20T20:56:20;96784.59;;;15.68;39.61
31595;BME280;18200;48.726;8.892;2023-12-20T21:00:20;96788.47;;;15.74;39.27
31595;BME280;18200;48.726;8.892;2023-12-20T21:04:21;96786.88;;;16.15;38.84
31595;BME280;18200;48.726;8.892;2023-12-20T21:08:22;96768.31;;;15.89;38.97
31595;BME280;18200;48.726;8.892;2023-12-20T21:12:23;96750.50;;;16.09;38.76
31595;BME280;18200;48.726;8.892;2023-12-20T21:16:25;96747.47;;;15.43;40.24
31595;BME280;18200;48.726;8.892;2023-12-20T21:20:26;96745.88;;;15.85;39.36
31595;BME280;18200;48.726;8.892;2023-12-20T21:24:26;96748.94;;;16.15;38.86